sensor_id;sensor_type;location;lat;lon;timestamp;temperature;humidity
63976;DHT22;50167;47.958;21.780;2023-07-13T08:38:54;28.06;64.88
63976;DHT22;50167;47.958;21.780;2023-07-13T08:41:23;28.09;64.97
63976;DHT22;50167;47.958;21.780;2023-07-13T08:43:54;28.16;63.75
63976;DHT22;50167;47.958;21.780;2023-07-13T08:46:38;28.22;63.40
63976;DHT22;50167;47.958;21.780;2023-07-13T08:49:22;28.27;62.65
63976;DHT22;50167;47.958;21.780;2023-07-13T08:52:02;28.31;62.13
63976;DHT22;50167;47.958;21.780;2023-07-13T08:54:35;28.28;62.45
63976;DHT22;50167;47.958;21.780;2023-07-13T08:57:15;28.24;61.77
63976;DHT22;50167;47.958;21.780;2023-07-13T08:59:44;28.34;61.76
63976;DHT22;50167;47.958;21.780;2023-07-13T09:02:26;28.45;61.62
63976;DHT22;50167;47.958;21.780;2023-07-13T09:05:24;28.60;61.12
63976;DHT22;50167;47.958;21.780;2023-07-13T09:10:44;28.72;60.52
63976;DHT22;50167;47.958;21.780;2023-07-13T09:13:37;28.78;60.35
63976;DHT22;50167;47.958;21.780;2023-07-13T09:16:03;28.85;60.34
63976;DHT22;50167;47.958;21.780;2023-07-13T09:18:41;28.74;59.80
63976;DHT22;50167;47.958;21.780;2023-07-13T09:21:18;28.56;59.98
63976;DHT22;50167;47.958;21.780;2023-07-13T09:23:45;28.35;60.34
63976;DHT22;50167;47.958;21.780;2023-07-13T09:26:20;28.16;60.20
63976;DHT22;50167;47.958;21.780;2023-07-13T09:28:57;28.03;60.91
63976;DHT22;50167;47.958;21.780;2023-07-13T09:31:30;28.00;61.02
63976;DHT22;50167;47.958;21.780;2023-07-13T09:33:56;27.93;60.79
63976;DHT22;50167;47.958;21.780;2023-07-13T09:36:31;27.92;61.19
63976;DHT22;50167;47.958;21.780;2023-07-13T09:39:27;27.95;61.72
63976;DHT22;50167;47.958;21.780;2023-07-13T09:42:18;28.04;61.73
63976;DHT22;50167;47.958;21.780;2023-07-13T09:44:54;28.27;61.64
63976;DHT22;50167;47.958;21.780;2023-07-13T09:50:03;28.92;60.16
63976;DHT22;50167;47.958;21.780;2023-07-13T09:52:49;29.26;60.26
63976;DHT22;50167;47.958;21.780;2023-07-13T09:55:36;29.56;58.05
63976;DHT22;50167;47.958;21.780;2023-07-13T09:58:17;29.20;59.24
63976;DHT22;50167;47.958;21.780;2023-07-13T10:01:04;28.51;61.23
63976;DHT22;50167;47.958;21.780;2023-07-13T10:03:34;28.02;63.32
63976;DHT22;50167;47.958;21.780;2023-07-13T10:06:16;28.43;63.47
63976;DHT22;50167;47.958;21.780;2023-07-13T10:08:48;29.25;61.57
63976;DHT22;50167;47.958;21.780;2023-07-13T10:11:29;29.78;62.16
63976;DHT22;50167;47.958;21.780;2023-07-13T10:14:16;30.29;59.21
63976;DHT22;50167;47.958;21.780;2023-07-13T10:16:45;30.22;59.44
63976;DHT22;50167;47.958;21.780;2023-07-13T10:19:23;29.61;61.57
63976;DHT22;50167;47.958;21.780;2023-07-13T10:22:13;29.16;62.97
63976;DHT22;50167;47.958;21.780;2023-07-13T10:24:38;29.67;62.58
63976;DHT22;50167;47.958;21.780;2023-07-13T10:27:21;30.61;59.69
63976;DHT22;50167;47.958;21.780;2023-07-13T10:30:19;31.21;57.93
63976;DHT22;50167;47.958;21.780;2023-07-13T10:32:46;30.75;59.79
63976;DHT22;50167;47.958;21.780;2023-07-13T10:35:16;30.29;60.35
63976;DHT22;50167;47.958;21.780;2023-07-13T10:38:04;29.96;60.04
63976;DHT22;50167;47.958;21.780;2023-07-13T10:40:43;29.54;61.43
63976;DHT22;50167;47.958;21.780;2023-07-13T10:43:27;29.23;62.20
63976;DHT22;50167;47.958;21.780;2023-07-13T10:50:26;30.46;59.80
63976;DHT22;50167;47.958;21.780;2023-07-13T10:52:55;31.33;56.53
63976;DHT22;50167;47.958;21.780;2023-07-13T11:01:03;29.56;59.04
63976;DHT22;50167;47.958;21.780;2023-07-13T11:03:27;29.17;60.77
63976;DHT22;50167;47.958;21.780;2023-07-13T11:09:35;30.13;59.90
63976;DHT22;50167;47.958;21.780;2023-07-13T11:17:53;30.04;60.00
63976;DHT22;50167;47.958;21.780;2023-07-13T11:20:31;29.79;60.04
63976;DHT22;50167;47.958;21.780;2023-07-13T11:23:20;29.56;61.23
63976;DHT22;50167;47.958;21.780;2023-07-13T11:25:38;29.30;60.97
63976;DHT22;50167;47.958;21.780;2023-07-13T11:28:16;29.05;61.30
63976;DHT22;50167;47.958;21.780;2023-07-13T11:33:45;28.48;63.37
63976;DHT22;50167;47.958;21.780;2023-07-13T11:36:15;29.48;60.36
63976;DHT22;50167;47.958;21.780;2023-07-13T11:39:04;30.56;59.05
63976;DHT22;50167;47.958;21.780;2023-07-13T11:41:34;30.60;57.97
63976;DHT22;50167;47.958;21.780;2023-07-13T11:44:17;30.18;58.45
63976;DHT22;50167;47.958;21.780;2023-07-13T11:46:57;29.94;59.49
63976;DHT22;50167;47.958;21.780;2023-07-13T11:49:24;29.83;60.20
63976;DHT22;50167;47.958;21.780;2023-07-13T11:51:51;29.72;59.21
63976;DHT22;50167;47.958;21.780;2023-07-13T11:54:30;29.71;60.32
63976;DHT22;50167;47.958;21.780;2023-07-13T11:59:33;29.43;61.32
63976;DHT22;50167;47.958;21.780;2023-07-13T12:02:01;29.29;60.51
63976;DHT22;50167;47.958;21.780;2023-07-13T12:04:32;29.00;61.44
63976;DHT22;50167;47.958;21.780;2023-07-13T12:07:14;28.64;62.22
63976;DHT22;50167;47.958;21.780;2023-07-13T12:09:40;28.52;63.26
63976;DHT22;50167;47.958;21.780;2023-07-13T12:12:15;29.51;61.19
63976;DHT22;50167;47.958;21.780;2023-07-13T12:14:41;30.29;58.56
63976;DHT22;50167;47.958;21.780;2023-07-13T12:17:23;30.22;58.27
63976;DHT22;50167;47.958;21.780;2023-07-13T12:19:46;29.83;60.13
63976;DHT22;50167;47.958;21.780;2023-07-13T12:22:15;29.63;60.85
63976;DHT22;50167;47.958;21.780;2023-07-13T12:24:44;29.44;60.76
63976;DHT22;50167;47.958;21.780;2023-07-13T12:27:26;29.44;62.16
63976;DHT22;50167;47.958;21.780;2023-07-13T12:30:00;29.53;60.92
63976;DHT22;50167;47.958;21.780;2023-07-13T12:32:32;29.51;59.65
63976;DHT22;50167;47.958;21.780;2023-07-13T12:35:20;29.53;58.96
63976;DHT22;50167;47.958;21.780;2023-07-13T12:57:41;32.04;54.25
63976;DHT22;50167;47.958;21.780;2023-07-13T13:00:47;31.67;54.83
63976;DHT22;50167;47.958;21.780;2023-07-13T13:03:24;31.83;55.43
63976;DHT22;50167;47.958;21.780;2023-07-13T13:08:54;32.66;54.03
63976;DHT22;50167;47.958;21.780;2023-07-13T13:11:31;33.02;51.51
63976;DHT22;50167;47.958;21.780;2023-07-13T13:14:02;33.23;49.90
63976;DHT22;50167;47.958;21.780;2023-07-13T13:16:50;33.47;50.15
63976;DHT22;50167;47.958;21.780;2023-07-13T13:22:03;33.61;48.88
63976;DHT22;50167;47.958;21.780;2023-07-13T13:24:38;33.60;49.81
63976;DHT22;50167;47.958;21.780;2023-07-13T13:27:32;33.98;50.09
63976;DHT22;50167;47.958;21.780;2023-07-13T13:30:26;34.57;49.06
63976;DHT22;50167;47.958;21.780;2023-07-13T13:36:23;34.84;46.54
63976;DHT22;50167;47.958;21.780;2023-07-13T13:42:32;34.02;47.97
63976;DHT22;50167;47.958;21.780;2023-07-13T13:45:22;33.41;48.25
63976;DHT22;50167;47.958;21.780;2023-07-13T13:48:48;32.83;49.74
63976;DHT22;50167;47.958;21.780;2023-07-13T13:50:49;33.06;49.10
63976;DHT22;50167;47.958;21.780;2023-07-13T14:04:37;34.49;46.59
63976;DHT22;50167;47.958;21.780;2023-07-13T14:07:34;34.95;44.81
63976;DHT22;50167;47.958;21.780;2023-07-13T14:13:07;35.87;43.54
63976;DHT22;50167;47.958;21.780;2023-07-13T14:15:44;35.93;41.72
63976;DHT22;50167;47.958;21.780;2023-07-13T14:18:47;36.00;41.97
63976;DHT22;50167;47.958;21.780;2023-07-13T14:29:04;36.66;39.91
63976;DHT22;50167;47.958;21.780;2023-07-13T14:35:04;37.34;40.50
63976;DHT22;50167;47.958;21.780;2023-07-13T14:44:40;37.82;38.29
63976;DHT22;50167;47.958;21.780;2023-07-13T14:50:27;38.06;38.12
63976;DHT22;50167;47.958;21.780;2023-07-13T14:56:19;38.53;37.53
63976;DHT22;50167;47.958;21.780;2023-07-13T14:59:28;38.70;37.31
63976;DHT22;50167;47.958;21.780;2023-07-13T15:01:58;38.84;36.49
63976;DHT22;50167;47.958;21.780;2023-07-13T15:07:28;38.97;36.07
63976;DHT22;50167;47.958;21.780;2023-07-13T15:12:40;39.17;36.08
63976;DHT22;50167;47.958;21.780;2023-07-13T15:15:07;39.28;35.74
63976;DHT22;50167;47.958;21.780;2023-07-13T15:17:37;39.25;35.63
63976;DHT22;50167;47.958;21.780;2023-07-13T15:20:19;39.04;35.76
63976;DHT22;50167;47.958;21.780;2023-07-13T15:22:45;38.87;36.23
63976;DHT22;50167;47.958;21.780;2023-07-13T15:25:23;38.42;37.09
63976;DHT22;50167;47.958;21.780;2023-07-13T15:27:53;38.39;36.70
63976;DHT22;50167;47.958;21.780;2023-07-13T15:30:21;38.43;36.51
63976;DHT22;50167;47.958;21.780;2023-07-13T15:32:48;38.43;36.84
63976;DHT22;50167;47.958;21.780;2023-07-13T15:35:24;38.25;35.97
63976;DHT22;50167;47.958;21.780;2023-07-13T15:37:48;37.88;34.40
63976;DHT22;50167;47.958;21.780;2023-07-13T15:40:14;37.41;36.19
63976;DHT22;50167;47.958;21.780;2023-07-13T15:42:44;36.99;37.13
63976;DHT22;50167;47.958;21.780;2023-07-13T15:45:20;36.58;37.19
63976;DHT22;50167;47.958;21.780;2023-07-13T15:47:49;36.16;38.04
63976;DHT22;50167;47.958;21.780;2023-07-13T15:50:24;35.70;39.24
63976;DHT22;50167;47.958;21.780;2023-07-13T15:52:53;35.09;39.41
63976;DHT22;50167;47.958;21.780;2023-07-13T15:55:21;34.61;39.72
63976;DHT22;50167;47.958;21.780;2023-07-13T15:57:51;33.99;41.39
63976;DHT22;50167;47.958;21.780;2023-07-13T16:00:22;33.37;42.09
63976;DHT22;50167;47.958;21.780;2023-07-13T16:02:50;32.80;43.73
63976;DHT22;50167;47.958;21.780;2023-07-13T16:05:18;32.39;44.41
63976;DHT22;50167;47.958;21.780;2023-07-13T16:07:46;32.10;45.18
63976;DHT22;50167;47.958;21.780;2023-07-13T16:10:17;31.95;46.21
63976;DHT22;50167;47.958;21.780;2023-07-13T16:12:46;31.75;46.67
63976;DHT22;50167;47.958;21.780;2023-07-13T16:15:16;31.49;46.78
63976;DHT22;50167;47.958;21.780;2023-07-13T16:17:45;31.18;47.49
63976;DHT22;50167;47.958;21.780;2023-07-13T16:20:13;30.87;48.58
63976;DHT22;50167;47.958;21.780;2023-07-13T16:22:45;30.59;49.04
63976;DHT22;50167;47.958;21.780;2023-07-13T16:25:18;30.30;49.82
63976;DHT22;50167;47.958;21.780;2023-07-13T16:27:48;29.98;51.21
63976;DHT22;50167;47.958;21.780;2023-07-13T16:30:23;29.68;49.38
63976;DHT22;50167;47.958;21.780;2023-07-13T16:32:57;29.41;51.18
63976;DHT22;50167;47.958;21.780;2023-07-13T16:35:28;29.17;51.68
63976;DHT22;50167;47.958;21.780;2023-07-13T16:37:55;28.95;51.87
63976;DHT22;50167;47.958;21.780;2023-07-13T16:40:29;28.75;54.09
63976;DHT22;50167;47.958;21.780;2023-07-13T16:42:57;28.45;56.13
63976;DHT22;50167;47.958;21.780;2023-07-13T16:45:28;28.07;58.16
63976;DHT22;50167;47.958;21.780;2023-07-13T16:47:57;27.58;60.29
63976;DHT22;50167;47.958;21.780;2023-07-13T16:50:28;27.15;61.46
63976;DHT22;50167;47.958;21.780;2023-07-13T16:52:54;26.79;60.63
63976;DHT22;50167;47.958;21.780;2023-07-13T16:55:22;26.46;61.29
63976;DHT22;50167;47.958;21.780;2023-07-13T16:57:50;26.17;61.86
63976;DHT22;50167;47.958;21.780;2023-07-13T17:00:25;25.91;62.58
63976;DHT22;50167;47.958;21.780;2023-07-13T17:02:56;26.63;62.23
63976;DHT22;50167;47.958;21.780;2023-07-13T17:05:37;27.44;58.80
63976;DHT22;50167;47.958;21.780;2023-07-13T17:08:14;27.20;59.68
63976;DHT22;50167;47.958;21.780;2023-07-13T17:10:42;26.59;61.54
63976;DHT22;50167;47.958;21.780;2023-07-13T17:13:12;26.15;62.55
63976;DHT22;50167;47.958;21.780;2023-07-13T17:15:39;26.72;62.67
63976;DHT22;50167;47.958;21.780;2023-07-13T17:18:06;27.68;61.14
63976;DHT22;50167;47.958;21.780;2023-07-13T17:20:40;28.22;58.13
63976;DHT22;50167;47.958;21.780;2023-07-13T17:23:27;27.90;59.23
63976;DHT22;50167;47.958;21.780;2023-07-13T17:25:51;27.13;61.32
63976;DHT22;50167;47.958;21.780;2023-07-13T17:28:23;26.56;62.64
63976;DHT22;50167;47.958;21.780;2023-07-13T17:30:52;26.91;61.94
63976;DHT22;50167;47.958;21.780;2023-07-13T17:33:34;27.54;61.46
63976;DHT22;50167;47.958;21.780;2023-07-13T17:36:04;27.55;60.25
63976;DHT22;50167;47.958;21.780;2023-07-13T17:38:39;26.89;61.75
63976;DHT22;50167;47.958;21.780;2023-07-13T17:41:08;26.22;63.29
63976;DHT22;50167;47.958;21.780;2023-07-13T17:43:37;26.66;63.56
63976;DHT22;50167;47.958;21.780;2023-07-13T17:46:14;27.49;62.52
63976;DHT22;50167;47.958;21.780;2023-07-13T17:48:45;27.86;61.28
63976;DHT22;50167;47.958;21.780;2023-07-13T17:51:16;28.22;60.75
63976;DHT22;50167;47.958;21.780;2023-07-13T17:53:43;28.40;58.62
63976;DHT22;50167;47.958;21.780;2023-07-13T17:56:11;27.87;59.34
63976;DHT22;50167;47.958;21.780;2023-07-13T17:58:39;27.03;60.98
63976;DHT22;50167;47.958;21.780;2023-07-13T18:01:14;26.34;62.05
63976;DHT22;50167;47.958;21.780;2023-07-13T18:03:43;25.79;63.97
63976;DHT22;50167;47.958;21.780;2023-07-13T18:06:27;26.27;64.51
63976;DHT22;50167;47.958;21.780;2023-07-13T18:08:58;27.09;62.13
63976;DHT22;50167;47.958;21.780;2023-07-13T18:11:26;27.31;60.70
63976;DHT22;50167;47.958;21.780;2023-07-13T18:13:52;27.69;59.67
63976;DHT22;50167;47.958;21.780;2023-07-13T18:16:25;27.89;58.30
63976;DHT22;50167;47.958;21.780;2023-07-13T18:18:55;27.34;58.74
63976;DHT22;50167;47.958;21.780;2023-07-13T18:21:22;26.45;60.96
63976;DHT22;50167;47.958;21.780;2023-07-13T18:23:49;25.77;62.65
63976;DHT22;50167;47.958;21.780;2023-07-13T18:26:18;26.03;63.20
63976;DHT22;50167;47.958;21.780;2023-07-13T18:28:46;26.73;61.93
63976;DHT22;50167;47.958;21.780;2023-07-13T18:31:19;26.93;60.24
63976;DHT22;50167;47.958;21.780;2023-07-13T18:33:49;27.20;60.15
63976;DHT22;50167;47.958;21.780;2023-07-13T18:36:18;27.47;59.48
63976;DHT22;50167;47.958;21.780;2023-07-13T18:38:44;27.18;58.81
63976;DHT22;50167;47.958;21.780;2023-07-13T18:41:17;26.31;60.21
63976;DHT22;50167;47.958;21.780;2023-07-13T18:43:48;25.52;62.46
63976;DHT22;50167;47.958;21.780;2023-07-13T18:46:25;25.75;63.16
63976;DHT22;50167;47.958;21.780;2023-07-13T18:48:54;26.70;61.70
63976;DHT22;50167;47.958;21.780;2023-07-13T18:51:21;27.14;60.05
63976;DHT22;50167;47.958;21.780;2023-07-13T18:53:50;27.35;58.43
63976;DHT22;50167;47.958;21.780;2023-07-13T18:56:17;26.93;59.37
63976;DHT22;50167;47.958;21.780;2023-07-13T18:58:43;26.07;60.74
63976;DHT22;50167;47.958;21.780;2023-07-13T19:01:29;25.28;62.87
63976;DHT22;50167;47.958;21.780;2023-07-13T19:04:35;25.59;63.61
63976;DHT22;50167;47.958;21.780;2023-07-13T19:07:13;26.45;61.00
63976;DHT22;50167;47.958;21.780;2023-07-13T19:09:39;26.74;60.25
63976;DHT22;50167;47.958;21.780;2023-07-13T19:12:21;26.91;59.48
63976;DHT22;50167;47.958;21.780;2023-07-13T19:14:50;26.38;59.48
63976;DHT22;50167;47.958;21.780;2023-07-13T19:17:17;25.48;61.95
63976;DHT22;50167;47.958;21.780;2023-07-13T19:19:43;24.74;63.26
63976;DHT22;50167;47.958;21.780;2023-07-13T19:22:14;25.05;62.79
63976;DHT22;50167;47.958;21.780;2023-07-13T19:24:41;25.84;61.21
63976;DHT22;50167;47.958;21.780;2023-07-13T19:27:14;26.25;60.13
63976;DHT22;50167;47.958;21.780;2023-07-13T19:29:41;26.48;59.16
63976;DHT22;50167;47.958;21.780;2023-07-13T19:32:09;26.01;59.15
63976;DHT22;50167;47.958;21.780;2023-07-13T19:34:36;25.14;61.63
63976;DHT22;50167;47.958;21.780;2023-07-13T19:37:11;24.42;62.97
63976;DHT22;50167;47.958;21.780;2023-07-13T19:39:37;24.66;62.81
63976;DHT22;50167;47.958;21.780;2023-07-13T19:42:23;25.25;60.98
63976;DHT22;50167;47.958;21.780;2023-07-13T19:44:50;25.62;59.28
63976;DHT22;50167;47.958;21.780;2023-07-13T19:47:18;25.28;59.70
63976;DHT22;50167;47.958;21.780;2023-07-13T19:49:45;24.43;61.85
63976;DHT22;50167;47.958;21.780;2023-07-13T19:52:16;23.88;63.72
63976;DHT22;50167;47.958;21.780;2023-07-13T19:54:51;24.64;62.31
63976;DHT22;50167;47.958;21.780;2023-07-13T19:57:24;25.39;60.61
63976;DHT22;50167;47.958;21.780;2023-07-13T19:59:52;25.76;59.49
63976;DHT22;50167;47.958;21.780;2023-07-13T20:02:22;25.46;58.85
63976;DHT22;50167;47.958;21.780;2023-07-13T20:04:49;24.63;60.65
63976;DHT22;50167;47.958;21.780;2023-07-13T20:07:18;23.89;62.59
63976;DHT22;50167;47.958;21.780;2023-07-13T20:09:45;24.20;62.70
63976;DHT22;50167;47.958;21.780;2023-07-13T20:12:21;25.07;61.11
63976;DHT22;50167;47.958;21.780;2023-07-13T20:14:49;25.59;59.77
63976;DHT22;50167;47.958;21.780;2023-07-13T20:17:28;25.91;58.81
63976;DHT22;50167;47.958;21.780;2023-07-13T20:19:50;25.49;58.18
63976;DHT22;50167;47.958;21.780;2023-07-13T20:22:17;24.57;60.48
63976;DHT22;50167;47.958;21.780;2023-07-13T20:24:44;23.77;62.88
63976;DHT22;50167;47.958;21.780;2023-07-13T20:27:10;24.05;62.82
63976;DHT22;50167;47.958;21.780;2023-07-13T20:29:36;25.00;60.79
63976;DHT22;50167;47.958;21.780;2023-07-13T20:32:04;25.49;58.97
63976;DHT22;50167;47.958;21.780;2023-07-13T20:34:36;25.21;58.49
63976;DHT22;50167;47.958;21.780;2023-07-13T20:37:32;24.26;60.53
63976;DHT22;50167;47.958;21.780;2023-07-13T20:40:00;23.39;62.88
63976;DHT22;50167;47.958;21.780;2023-07-13T20:42:26;23.74;63.33
63976;DHT22;50167;47.958;21.780;2023-07-13T20:44:52;24.67;61.01
63976;DHT22;50167;47.958;21.780;2023-07-13T20:47:23;25.23;60.01
63976;DHT22;50167;47.958;21.780;2023-07-13T20:49:49;25.50;57.89
63976;DHT22;50167;47.958;21.780;2023-07-13T20:52:18;24.91;58.52
63976;DHT22;50167;47.958;21.780;2023-07-13T20:54:44;24.01;60.78
63976;DHT22;50167;47.958;21.780;2023-07-13T20:57:12;23.29;62.89
63976;DHT22;50167;47.958;21.780;2023-07-13T20:59:39;23.58;62.89
63976;DHT22;50167;47.958;21.780;2023-07-13T21:02:26;24.44;60.69
63976;DHT22;50167;47.958;21.780;2023-07-13T21:04:52;24.95;58.99
63976;DHT22;50167;47.958;21.780;2023-07-13T21:07:20;24.63;59.01
63976;DHT22;50167;47.958;21.780;2023-07-13T21:09:47;23.80;61.16
63976;DHT22;50167;47.958;21.780;2023-07-13T21:12:13;23.06;63.28
63976;DHT22;50167;47.958;21.780;2023-07-13T21:14:40;23.46;62.85
63976;DHT22;50167;47.958;21.780;2023-07-13T21:17:12;24.35;60.94
63976;DHT22;50167;47.958;21.780;2023-07-13T21:19:38;24.87;58.79
63976;DHT22;50167;47.958;21.780;2023-07-13T21:22:05;24.57;58.94
63976;DHT22;50167;47.958;21.780;2023-07-13T21:24:31;23.71;61.11
63976;DHT22;50167;47.958;21.780;2023-07-13T21:26:57;23.00;63.08
63976;DHT22;50167;47.958;21.780;2023-07-13T21:29:24;23.43;63.17
63976;DHT22;50167;47.958;21.780;2023-07-13T21:31:50;24.26;60.58
63976;DHT22;50167;47.958;21.780;2023-07-13T21:34:19;24.71;59.18
63976;DHT22;50167;47.958;21.780;2023-07-13T21:36:47;24.04;60.39
63976;DHT22;50167;47.958;21.780;2023-07-13T21:39:16;23.27;62.30
63976;DHT22;50167;47.958;21.780;2023-07-13T21:41:43;22.92;64.05
63976;DHT22;50167;47.958;21.780;2023-07-13T21:44:27;23.85;62.04
63976;DHT22;50167;47.958;21.780;2023-07-13T21:46:54;24.59;59.66
63976;DHT22;50167;47.958;21.780;2023-07-13T21:49:22;24.88;58.64
63976;DHT22;50167;47.958;21.780;2023-07-13T21:51:49;24.53;58.92
63976;DHT22;50167;47.958;21.780;2023-07-13T21:54:18;23.64;61.21
63976;DHT22;50167;47.958;21.780;2023-07-13T21:56:45;22.96;63.17
63976;DHT22;50167;47.958;21.780;2023-07-13T21:59:25;23.30;63.00
63976;DHT22;50167;47.958;21.780;2023-07-13T22:01:53;24.11;61.32
63976;DHT22;50167;47.958;21.780;2023-07-13T22:04:26;24.59;59.24
63976;DHT22;50167;47.958;21.780;2023-07-13T22:06:53;24.15;60.07
63976;DHT22;50167;47.958;21.780;2023-07-13T22:09:21;23.29;61.94
63976;DHT22;50167;47.958;21.780;2023-07-13T22:11:47;22.65;63.94
63976;DHT22;50167;47.958;21.780;2023-07-13T22:14:14;23.05;64.01
63976;DHT22;50167;47.958;21.780;2023-07-13T22:16:41;23.89;62.64
63976;DHT22;50167;47.958;21.780;2023-07-13T22:19:14;24.19;60.88
63976;DHT22;50167;47.958;21.780;2023-07-13T22:21:40;24.30;61.14
63976;DHT22;50167;47.958;21.780;2023-07-13T22:24:19;24.36;60.70
63976;DHT22;50167;47.958;21.780;2023-07-13T22:26:50;24.43;60.79
63976;DHT22;50167;47.958;21.780;2023-07-13T22:29:20;24.44;59.22
63976;DHT22;50167;47.958;21.780;2023-07-13T22:31:47;23.88;60.45
63976;DHT22;50167;47.958;21.780;2023-07-13T22:34:16;23.06;62.28
63976;DHT22;50167;47.958;21.780;2023-07-13T22:36:43;23.06;63.80
63976;DHT22;50167;47.958;21.780;2023-07-13T22:39:13;23.83;62.56
63976;DHT22;50167;47.958;21.780;2023-07-13T22:41:41;24.26;60.89
63976;DHT22;50167;47.958;21.780;2023-07-13T22:44:19;24.53;60.44
63976;DHT22;50167;47.958;21.780;2023-07-13T22:46:47;24.68;58.66
63976;DHT22;50167;47.958;21.780;2023-07-13T22:49:29;24.13;59.66
63976;DHT22;50167;47.958;21.780;2023-07-13T22:51:57;23.10;61.90
63976;DHT22;50167;47.958;21.780;2023-07-13T22:54:24;22.38;64.08
63976;DHT22;50167;47.958;21.780;2023-07-13T22:56:50;22.71;64.30
63976;DHT22;50167;47.958;21.780;2023-07-13T22:59:17;23.47;62.36
63976;DHT22;50167;47.958;21.780;2023-07-13T23:01:43;23.84;61.01
63976;DHT22;50167;47.958;21.780;2023-07-13T23:04:33;24.13;61.06
63976;DHT22;50167;47.958;21.780;2023-07-13T23:06:57;24.27;59.89
63976;DHT22;50167;47.958;21.780;2023-07-13T23:09:25;24.38;58.73
63976;DHT22;50167;47.958;21.780;2023-07-13T23:11:53;23.87;59.62
63976;DHT22;50167;47.958;21.780;2023-07-13T23:14:20;23.00;62.13
63976;DHT22;50167;47.958;21.780;2023-07-13T23:16:47;22.24;63.88
63976;DHT22;50167;47.958;21.780;2023-07-13T23:19:30;22.58;64.38
63976;DHT22;50167;47.958;21.780;2023-07-13T23:21:58;23.46;62.65
63976;DHT22;50167;47.958;21.780;2023-07-13T23:24:25;23.95;61.03
63976;DHT22;50167;47.958;21.780;2023-07-13T23:26:52;24.25;60.63
63976;DHT22;50167;47.958;21.780;2023-07-13T23:29:19;24.33;59.50
63976;DHT22;50167;47.958;21.780;2023-07-13T23:31:45;24.43;59.53
63976;DHT22;50167;47.958;21.780;2023-07-13T23:34:15;24.59;59.46
63976;DHT22;50167;47.958;21.780;2023-07-13T23:36:42;24.13;59.27
63976;DHT22;50167;47.958;21.780;2023-07-13T23:39:15;23.25;61.06
63976;DHT22;50167;47.958;21.780;2023-07-13T23:41:42;22.47;62.98
63976;DHT22;50167;47.958;21.780;2023-07-13T23:44:10;22.67;63.73
63976;DHT22;50167;47.958;21.780;2023-07-13T23:46:49;23.46;62.19
63976;DHT22;50167;47.958;21.780;2023-07-13T23:49:23;23.96;60.79
63976;DHT22;50167;47.958;21.780;2023-07-13T23:52:01;24.17;59.67
63976;DHT22;50167;47.958;21.780;2023-07-13T23:54:26;24.30;59.84
63976;DHT22;50167;47.958;21.780;2023-07-13T23:56:52;24.39;59.15
63976;DHT22;50167;47.958;21.780;2023-07-13T23:59:21;23.96;59.36
